createdAt,value
2022-12-18T00:00:42.533Z,1.98
2022-12-18T00:05:34.324Z,2.17
2022-12-18T00:10:26.003Z,1.88
2022-12-18T00:15:17.847Z,1.63
2022-12-18T00:20:10.294Z,1.38
2022-12-18T00:25:02.108Z,1.63
2022-12-18T00:29:53.764Z,1.90
2022-12-18T00:34:45.396Z,1.30
2022-12-18T00:39:37.051Z,1.60
2022-12-18T00:44:28.653Z,1.58
2022-12-18T00:49:21.228Z,1.40
2022-12-18T00:54:13.073Z,1.33
2022-12-18T00:59:05.266Z,1.48
2022-12-18T01:03:58.260Z,1.52
2022-12-18T01:08:49.856Z,1.52
2022-12-18T01:13:41.961Z,1.73
2022-12-18T01:18:34.092Z,1.75
2022-12-18T01:23:26.171Z,1.17
2022-12-18T01:28:18.035Z,1.73
2022-12-18T01:33:09.635Z,1.80
2022-12-18T01:38:01.343Z,1.38
2022-12-18T01:42:53.755Z,2.20
2022-12-18T01:47:56.215Z,1.88
2022-12-18T01:52:51.040Z,1.80
2022-12-18T01:57:43.255Z,2.13
2022-12-18T02:02:35.056Z,1.92
2022-12-18T02:07:41.633Z,3.28
2022-12-18T02:12:57.708Z,2.20
2022-12-18T02:17:55.871Z,2.35
2022-12-18T02:23:19.891Z,3.17
2022-12-18T02:28:16.431Z,2.28
2022-12-18T02:33:11.033Z,2.40
2022-12-18T02:38:05.158Z,2.55
2022-12-18T02:43:03.085Z,3.55
2022-12-18T02:47:54.936Z,2.92
2022-12-18T02:52:52.430Z,3.42
2022-12-18T02:57:51.728Z,4.27
2022-12-18T03:02:47.453Z,3.97
2022-12-18T03:07:57.932Z,4.05
2022-12-18T03:12:56.408Z,3.70
2022-12-18T03:17:56.072Z,4.20
2022-12-18T03:22:52.991Z,3.90
2022-12-18T03:27:50.074Z,4.20
2022-12-18T03:32:49.608Z,3.97
2022-12-18T03:37:41.384Z,4.47
2022-12-18T03:42:50.516Z,5.22
2022-12-18T03:47:59.287Z,4.60
2022-12-18T03:53:09.989Z,5.00
2022-12-18T03:58:04.624Z,4.93
2022-12-18T04:02:59.271Z,5.10
2022-12-18T04:07:52.983Z,5.97
2022-12-18T04:12:45.291Z,6.05
2022-12-18T04:17:37.025Z,6.43
2022-12-18T04:22:28.963Z,7.80
2022-12-18T04:27:20.607Z,6.22
2022-12-18T04:32:12.410Z,6.38
2022-12-18T04:37:04.090Z,6.88
2022-12-18T04:41:55.767Z,7.85
2022-12-18T04:46:47.734Z,7.63
2022-12-18T04:51:40.186Z,7.97
2022-12-18T04:56:33.162Z,6.95
2022-12-18T05:01:34.795Z,8.73
2022-12-18T05:06:26.908Z,9.95
2022-12-18T05:11:18.947Z,8.70
2022-12-18T05:16:11.254Z,9.90
2022-12-18T05:21:03.833Z,8.85
2022-12-18T05:25:58.249Z,10.15
2022-12-18T05:30:54.030Z,12.88
2022-12-18T05:35:45.996Z,11.45
2022-12-18T05:40:37.865Z,12.88
2022-12-18T05:45:29.440Z,11.52
2022-12-18T05:50:20.983Z,12.93
2022-12-18T05:55:12.606Z,12.45
2022-12-18T06:00:05.331Z,12.88
2022-12-18T06:04:56.964Z,12.30
2022-12-18T06:09:48.560Z,13.73
2022-12-18T06:14:40.168Z,13.52
2022-12-18T06:19:31.708Z,13.52
2022-12-18T06:24:23.268Z,12.82
2022-12-18T06:29:14.906Z,14.38
2022-12-18T06:34:06.609Z,13.70
2022-12-18T06:38:58.688Z,14.13
2022-12-18T06:43:50.523Z,14.77
2022-12-18T06:48:42.480Z,14.90
2022-12-18T06:53:34.506Z,12.05
2022-12-18T06:58:26.112Z,16.10
2022-12-18T07:03:17.763Z,15.05
2022-12-18T07:08:09.370Z,15.77
2022-12-18T07:13:01.787Z,15.82
2022-12-18T07:17:53.512Z,16.50
2022-12-18T07:22:45.075Z,16.92
2022-12-18T07:27:36.756Z,16.05
2022-12-18T07:32:28.427Z,15.60
2022-12-18T07:37:20.198Z,15.60
2022-12-18T07:42:30.799Z,15.23
2022-12-18T07:47:22.449Z,15.88
2022-12-18T07:52:14.047Z,17.08
2022-12-18T07:57:16.447Z,16.60
2022-12-18T08:02:17.456Z,15.85
2022-12-18T08:07:09.224Z,20.17
2022-12-18T08:12:00.880Z,17.60
2022-12-18T08:16:52.891Z,18.50
2022-12-18T08:21:44.678Z,17.73
2022-12-18T08:26:36.270Z,17.90
2022-12-18T08:31:29.850Z,18.02
2022-12-18T08:36:22.532Z,18.60
2022-12-18T08:41:16.775Z,15.15
2022-12-18T08:46:08.793Z,17.60
2022-12-18T08:51:00.918Z,18.73
2022-12-18T08:55:53.074Z,18.77
2022-12-18T09:00:44.715Z,18.10
2022-12-18T09:05:36.555Z,19.50
2022-12-18T09:10:28.171Z,18.80
2022-12-18T09:15:19.921Z,17.73
2022-12-18T09:20:12.781Z,18.50
2022-12-18T09:25:05.335Z,16.95
2022-12-18T09:29:56.967Z,16.63
2022-12-18T09:34:48.637Z,18.75
2022-12-18T09:39:41.178Z,18.02
2022-12-18T09:44:47.572Z,16.88
2022-12-18T09:49:45.540Z,17.13
2022-12-18T09:54:40.964Z,16.23
2022-12-18T09:59:40.250Z,15.38
2022-12-18T10:04:33.372Z,16.45
2022-12-18T10:09:38.615Z,14.32
2022-12-18T10:15:05.710Z,15.10
2022-12-18T10:20:07.755Z,13.50
2022-12-18T10:25:06.869Z,13.27
2022-12-18T10:29:59.143Z,12.07
2022-12-18T10:35:00.190Z,13.07
2022-12-18T10:40:10.487Z,12.13
2022-12-18T10:45:09.357Z,13.00
2022-12-18T10:50:01.065Z,12.20
2022-12-18T10:55:05.131Z,12.90
2022-12-18T10:59:59.071Z,12.80
2022-12-18T11:04:52.857Z,11.50
2022-12-18T11:09:44.538Z,10.73
2022-12-18T11:14:57.099Z,11.77
2022-12-18T11:19:57.124Z,11.25
2022-12-18T11:25:30.211Z,12.57
2022-12-18T11:30:22.290Z,11.43
2022-12-18T11:35:18.951Z,10.10
2022-12-18T11:40:19.693Z,10.55
2022-12-18T11:45:14.220Z,9.88
2022-12-18T11:50:17.671Z,10.15
2022-12-18T11:55:44.813Z,11.10
2022-12-18T12:00:49.572Z,11.43
2022-12-18T12:06:05.873Z,11.02
2022-12-18T12:11:06.064Z,10.98
2022-12-18T12:16:16.532Z,11.02
2022-12-18T12:21:14.447Z,9.73
2022-12-18T12:26:13.089Z,10.33
2022-12-18T12:31:04.836Z,10.98
2022-12-18T12:36:01.979Z,10.48
2022-12-18T12:41:33.875Z,11.50
2022-12-18T12:46:27.556Z,10.57
2022-12-18T12:51:29.294Z,10.85
2022-12-18T12:56:22.728Z,10.32
2022-12-18T13:01:24.285Z,11.20
2022-12-18T13:06:44.986Z,12.35
2022-12-18T13:12:00.003Z,11.13
2022-12-18T13:16:52.607Z,13.32
2022-12-18T13:21:54.728Z,12.23
2022-12-18T13:26:46.843Z,12.52
2022-12-18T13:31:42.359Z,11.82
2022-12-18T13:36:35.301Z,10.38
2022-12-18T13:41:30.179Z,12.63
2022-12-18T13:46:42.984Z,12.15
2022-12-18T13:51:35.874Z,12.00
2022-12-18T13:56:30.763Z,12.25
2022-12-18T14:01:24.252Z,13.70
2022-12-18T14:06:17.666Z,12.77
2022-12-18T14:11:22.091Z,12.45
2022-12-18T14:16:17.744Z,12.00
2022-12-18T14:21:19.157Z,11.13
2022-12-18T14:26:30.241Z,10.93
2022-12-18T14:31:24.918Z,11.40
2022-12-18T14:36:24.579Z,10.77
2022-12-18T14:41:18.409Z,12.40
2022-12-18T14:46:39.527Z,12.40
2022-12-18T14:51:34.346Z,13.57
2022-12-18T14:56:27.575Z,13.52
2022-12-18T15:01:26.295Z,12.95
2022-12-18T15:06:25.775Z,12.23
2022-12-18T15:11:28.173Z,12.15
2022-12-18T15:16:19.962Z,12.77
2022-12-18T15:21:17.432Z,12.70
2022-12-18T15:26:11.496Z,12.90
2022-12-18T15:31:10.163Z,12.40
2022-12-18T15:36:11.040Z,13.18
2022-12-18T15:41:03.232Z,12.07
2022-12-18T15:45:54.921Z,12.50
2022-12-18T15:50:46.972Z,11.02
2022-12-18T15:56:00.969Z,11.52
2022-12-18T16:01:00.208Z,10.60
2022-12-18T16:05:51.810Z,9.90
2022-12-18T16:10:43.618Z,8.75
2022-12-18T16:15:35.291Z,8.20
2022-12-18T16:20:27.064Z,8.07
2022-12-18T16:25:20.545Z,7.88
2022-12-18T16:30:16.937Z,6.13
2022-12-18T16:35:14.853Z,6.88
2022-12-18T16:40:09.904Z,6.85
2022-12-18T16:45:01.526Z,7.07
2022-12-18T16:49:53.393Z,6.28
2022-12-18T16:54:45.079Z,6.90
2022-12-18T16:59:36.927Z,5.88
2022-12-18T17:04:28.671Z,6.72
2022-12-18T17:09:25.568Z,6.70
2022-12-18T17:14:20.376Z,8.25
2022-12-18T17:19:17.092Z,7.70
2022-12-18T17:24:09.606Z,6.72
2022-12-18T17:29:01.596Z,5.90
2022-12-18T17:33:53.772Z,5.97
2022-12-18T17:38:54.291Z,6.90
2022-12-18T17:43:51.890Z,6.57
2022-12-18T17:48:43.635Z,6.20
2022-12-18T17:53:35.196Z,6.60
2022-12-18T17:58:30.584Z,6.95
2022-12-18T18:03:22.493Z,6.30
2022-12-18T18:08:14.313Z,7.07
2022-12-18T18:13:26.604Z,6.85
2022-12-18T18:18:19.572Z,6.10
2022-12-18T18:23:13.607Z,6.05
2022-12-18T18:28:05.455Z,6.57
2022-12-18T18:32:57.055Z,7.47
2022-12-18T18:37:49.344Z,7.03
2022-12-18T18:42:43.019Z,7.78
2022-12-18T18:47:34.657Z,6.82
2022-12-18T18:52:26.279Z,6.55
2022-12-18T18:57:20.705Z,6.40
2022-12-18T19:02:14.893Z,5.93
2022-12-18T19:07:07.808Z,5.72
2022-12-18T19:12:18.432Z,5.03
2022-12-18T19:17:10.375Z,5.78
2022-12-18T19:22:02.173Z,5.38
2022-12-18T19:26:54.167Z,4.40
2022-12-18T19:31:50.158Z,6.43
2022-12-18T19:36:42.136Z,5.35
2022-12-18T19:41:34.027Z,4.63
2022-12-18T19:46:26.868Z,4.57
2022-12-18T19:51:24.950Z,4.57
2022-12-18T19:56:19.349Z,3.72
2022-12-18T20:01:12.753Z,3.58
2022-12-18T20:06:26.814Z,4.18
2022-12-18T20:11:18.624Z,3.85
2022-12-18T20:16:10.838Z,4.82
2022-12-18T20:21:03.429Z,4.40
2022-12-18T20:25:56.121Z,4.05
2022-12-18T20:30:48.037Z,5.00
2022-12-18T20:35:39.667Z,4.05
2022-12-18T20:40:32.073Z,4.40
2022-12-18T20:45:23.795Z,3.80
2022-12-18T20:50:15.458Z,3.85
2022-12-18T20:55:07.589Z,4.15
2022-12-18T20:59:59.234Z,3.75
2022-12-18T21:04:50.848Z,4.10
2022-12-18T21:09:42.476Z,4.35
2022-12-18T21:14:34.420Z,5.22
2022-12-18T21:19:27.488Z,4.60
2022-12-18T21:24:19.912Z,4.90
2022-12-18T21:29:17.544Z,4.32
2022-12-18T21:34:14.863Z,4.93
2022-12-18T21:39:06.529Z,3.42
2022-12-18T21:44:07.445Z,5.82
2022-12-18T21:48:59.154Z,5.13
2022-12-18T21:53:50.842Z,4.95
2022-12-18T21:58:55.378Z,4.60
2022-12-18T22:03:49.140Z,4.97
2022-12-18T22:08:43.618Z,5.30
2022-12-18T22:13:35.620Z,5.40
2022-12-18T22:18:27.488Z,4.63
2022-12-18T22:23:19.125Z,4.82
2022-12-18T22:28:29.624Z,4.80
2022-12-18T22:33:21.251Z,4.88
2022-12-18T22:38:12.887Z,4.40
2022-12-18T22:43:04.574Z,4.90
2022-12-18T22:47:56.419Z,4.72
2022-12-18T22:52:48.025Z,4.95
2022-12-18T22:57:40.642Z,5.55
2022-12-18T23:07:29.625Z,4.38
2022-12-18T23:12:21.439Z,4.70
2022-12-18T23:17:13.533Z,5.05
2022-12-18T23:22:11.371Z,4.18
2022-12-18T23:31:58.400Z,3.30
2022-12-18T23:36:53.270Z,2.70
2022-12-18T23:41:47.652Z,2.73
2022-12-18T23:46:39.536Z,2.50
2022-12-18T23:51:32.086Z,2.80
2022-12-18T23:56:26.765Z,3.33
